Time;durP1;ratioP1;P1;durP2;ratioP2;P2;SDS_P1;SDS_P2;PMS_P1;PMS_P2;Temp;Humidity;BMP_temperature;BMP_pressure;BME280_temperature;BME280_humidity;BME280_pressure;Samples;Min_cycle;Max_cycle;Signal;HPM_P1;HPM_P2
2023/05/15 00:01:22;;;;;;;12.00;8.80;;;;;;;10.92;81.84;100572.69;106334;1257;70228;-72
2023/05/15 00:03:50;;;;;;;10.00;8.60;;;;;;;10.90;81.98;100568.47;106543;1256;71289;-69
2023/05/15 00:06:17;;;;;;;9.40;8.40;;;;;;;10.89;82.07;100566.61;106346;1256;61456;-73
2023/05/15 00:08:44;;;;;;;9.90;8.10;;;;;;;10.87;82.15;100568.30;106898;1256;61900;-68
2023/05/15 00:11:11;;;;;;;10.60;8.60;;;;;;;10.85;82.17;100563.77;106527;1257;74455;-69
2023/05/15 00:13:37;;;;;;;10.10;8.90;;;;;;;10.83;82.37;100560.84;106479;1257;69728;-70
2023/05/15 00:16:06;;;;;;;12.00;8.60;;;;;;;10.80;82.55;100556.91;106399;1257;73941;-67
2023/05/15 00:18:33;;;;;;;10.30;8.80;;;;;;;10.76;82.73;100556.98;106190;1256;61286;-69
2023/05/15 00:21:00;;;;;;;10.20;8.60;;;;;;;10.74;82.67;100553.02;106531;1256;61205;-67
2023/05/15 00:23:27;;;;;;;9.50;8.60;;;;;;;10.71;82.82;100553.47;106138;1256;73173;-72
2023/05/15 00:25:53;;;;;;;11.20;9.40;;;;;;;10.68;83.02;100549.33;106297;1256;71302;-68
2023/05/15 00:28:20;;;;;;;10.30;9.30;;;;;;;10.64;82.88;100550.45;106443;1257;70443;-71
2023/05/15 00:30:47;;;;;;;10.90;9.60;;;;;;;10.62;83.04;100548.59;106462;1256;61368;-68
2023/05/15 00:33:13;;;;;;;10.10;8.70;;;;;;;10.61;83.33;100549.92;106465;1257;61647;-69
2023/05/15 00:35:40;;;;;;;11.50;9.20;;;;;;;10.59;83.31;100549.97;106328;1257;61078;-70
2023/05/15 00:38:06;;;;;;;10.60;9.40;;;;;;;10.57;83.43;100552.07;106400;1256;61241;-69
2023/05/15 00:40:34;;;;;;;12.00;9.80;;;;;;;10.55;83.30;100549.54;106419;1257;61343;-68
2023/05/15 00:43:01;;;;;;;11.80;9.60;;;;;;;10.53;83.71;100552.55;106699;1256;61316;-69
2023/05/15 00:45:29;;;;;;;10.60;9.00;;;;;;;10.51;83.80;100547.02;106285;1257;61132;-69
2023/05/15 00:47:57;;;;;;;10.80;9.40;;;;;;;10.49;83.97;100546.58;106759;1259;74858;-67
2023/05/15 00:50:25;;;;;;;11.90;9.40;;;;;;;10.47;83.95;100543.20;106435;1256;71150;-70
2023/05/15 00:52:52;;;;;;;11.40;10.10;;;;;;;10.46;84.07;100540.35;106395;1257;72466;-66
2023/05/15 00:55:18;;;;;;;10.80;9.70;;;;;;;10.43;84.12;100540.51;106436;1262;62562;-68
2023/05/15 00:57:46;;;;;;;10.80;9.60;;;;;;;10.42;84.30;100539.95;106040;1257;61764;-70
2023/05/15 01:00:17;;;;;;;12.70;9.50;;;;;;;10.39;84.50;100545.31;106267;1257;72202;-69
2023/05/15 01:02:44;;;;;;;11.50;10.20;;;;;;;10.39;84.73;100541.30;106564;1256;69946;-68
2023/05/15 01:05:12;;;;;;;11.40;10.20;;;;;;;10.39;84.81;100537.19;106592;1257;74174;-69
2023/05/15 01:07:56;;;;;;;12.00;9.90;;;;;;;10.41;84.86;100539.30;107066;1259;62017;-70
2023/05/15 01:10:22;;;;;;;11.30;9.80;;;;;;;10.42;84.87;100539.02;108361;1256;61148;-67
2023/05/15 01:12:53;;;;;;;10.90;9.80;;;;;;;10.44;84.93;100538.98;106614;1256;73138;-68
2023/05/15 01:15:19;;;;;;;11.10;9.70;;;;;;;10.45;84.94;100536.52;106089;1259;70208;-70
2023/05/15 01:17:46;;;;;;;12.50;10.50;;;;;;;10.48;85.08;100537.59;106353;1257;72536;-71
2023/05/15 01:20:17;;;;;;;12.90;9.60;;;;;;;10.50;85.24;100537.58;106156;1256;61547;-69
2023/05/15 01:22:54;;;;;;;12.00;9.60;;;;;;;10.52;85.27;100528.47;106625;1257;61243;-68
2023/05/15 01:25:56;;;;;;;13.70;10.10;;;;;;;10.53;85.30;100528.89;107089;1256;74683;-69
2023/05/15 01:28:32;;;;;;;13.60;10.00;;;;;;;10.53;85.34;100524.79;106003;1257;70990;-69
2023/05/15 01:31:09;;;;;;;11.50;9.70;;;;;;;10.54;85.50;100523.65;106693;1257;72960;-68
2023/05/15 01:33:41;;;;;;;14.00;10.50;;;;;;;10.54;85.67;100524.17;106545;1257;61230;-69
2023/05/15 01:36:20;;;;;;;12.80;10.30;;;;;;;10.52;85.68;100520.11;106294;1257;62027;-71
2023/05/15 01:38:54;;;;;;;11.50;10.30;;;;;;;10.51;85.71;100521.02;106239;1257;73742;-69
2023/05/15 01:41:29;;;;;;;13.20;10.40;;;;;;;10.51;85.90;100519.75;106600;1256;69932;-70
2023/05/15 01:44:05;;;;;;;12.90;10.30;;;;;;;10.51;85.94;100518.52;106408;1257;70517;-70
2023/05/15 01:46:37;;;;;;;11.80;10.60;;;;;;;10.51;85.92;100516.95;106383;1257;61260;-68
2023/05/15 01:49:08;;;;;;;13.40;10.10;;;;;;;10.48;86.02;100511.79;107741;1257;61170;-67
2023/05/15 01:51:37;;;;;;;13.50;10.10;;;;;;;10.45;86.21;100508.97;108756;1257;75228;-67
2023/05/15 01:54:05;;;;;;;12.40;10.10;;;;;;;10.43;86.43;100503.17;107701;1256;69976;-69
2023/05/15 01:56:33;;;;;;;11.10;10.00;;;;;;;10.42;86.41;100502.11;106993;1256;70528;-69
2023/05/15 01:59:03;;;;;;;12.40;10.80;;;;;;;10.41;86.48;100504.30;108016;1257;61263;-68
2023/05/15 02:01:32;;;;;;;13.40;10.90;;;;;;;10.39;86.83;100501.65;107332;1257;59142;-69
2023/05/15 02:04:00;;;;;;;11.70;10.50;;;;;;;10.39;86.73;100506.30;106747;1256;74049;-68
2023/05/15 02:06:28;;;;;;;11.60;10.40;;;;;;;10.38;86.67;100503.89;106546;1260;70035;-69
2023/05/15 02:08:57;;;;;;;12.80;11.40;;;;;;;10.39;86.73;100506.33;106659;1258;70821;-67
2023/05/15 02:11:24;;;;;;;13.60;11.20;;;;;;;10.39;86.82;100502.52;106714;1257;61174;-69
2023/05/15 02:13:51;;;;;;;13.20;11.20;;;;;;;10.40;86.96;100499.59;106555;1256;61350;-68
2023/05/15 02:16:18;;;;;;;14.30;11.70;;;;;;;10.42;87.03;100499.41;107208;1257;74579;-68
2023/05/15 02:18:45;;;;;;;12.30;11.00;;;;;;;10.44;87.16;100499.25;106858;1257;69575;-69
2023/05/15 02:21:12;;;;;;;12.10;10.80;;;;;;;10.47;87.07;100499.41;106965;1256;71148;-67
2023/05/15 02:23:39;;;;;;;11.80;10.50;;;;;;;10.48;87.00;100500.26;106928;1260;61336;-71
2023/05/15 02:26:15;;;;;;;12.70;10.60;;;;;;;10.50;86.96;100498.79;106680;1257;61219;-69
2023/05/15 02:28:53;;;;;;;13.70;11.20;;;;;;;10.54;87.04;100496.35;106835;1256;74376;-69
2023/05/15 02:32:02;;;;;;;11.80;10.60;;;;;;;10.54;87.03;100489.63;106509;1257;69814;-68
2023/05/15 02:34:48;;;;;;;12.20;10.80;;;;;;;10.56;87.18;100488.08;107346;1258;73064;-68
2023/05/15 02:37:18;;;;;;;12.00;10.80;;;;;;;10.57;87.24;100486.86;106828;1260;61287;-69
2023/05/15 02:39:46;;;;;;;12.20;10.60;;;;;;;10.58;87.32;100482.96;106629;1260;61340;-69
2023/05/15 02:42:14;;;;;;;14.70;11.40;;;;;;;10.59;87.24;100478.69;106881;1257;75690;-69
2023/05/15 02:44:43;;;;;;;12.50;10.60;;;;;;;10.60;87.45;100475.55;106796;1260;69806;-69
2023/05/15 02:47:10;;;;;;;14.40;10.90;;;;;;;10.62;87.48;100476.77;106656;1258;72383;-71
2023/05/15 02:49:38;;;;;;;12.30;11.00;;;;;;;10.62;87.54;100473.05;106666;1257;61729;-68
2023/05/15 02:52:05;;;;;;;13.20;11.40;;;;;;;10.62;87.51;100470.60;107015;1261;61671;-68
2023/05/15 02:54:32;;;;;;;14.00;11.60;;;;;;;10.63;87.62;100470.98;106686;1257;74395;-69
2023/05/15 02:56:59;;;;;;;13.40;11.60;;;;;;;10.65;87.60;100472.88;106829;1256;61318;-69
2023/05/15 02:59:25;;;;;;;13.10;11.70;;;;;;;10.67;87.62;100470.17;106548;1256;72449;-69
2023/05/15 03:01:52;;;;;;;12.40;11.00;;;;;;;10.70;87.57;100467.73;107034;1256;61138;-69
2023/05/15 03:04:19;;;;;;;12.20;10.90;;;;;;;10.72;87.46;100465.32;106911;1257;60070;-70
2023/05/15 03:06:46;;;;;;;13.60;11.80;;;;;;;10.74;87.43;100468.59;106937;1259;74830;-69
2023/05/15 03:09:13;;;;;;;12.80;11.20;;;;;;;10.76;87.41;100465.59;106852;1256;70174;-68
2023/05/15 03:11:40;;;;;;;12.30;10.90;;;;;;;10.76;87.56;100467.13;106461;1256;72304;-71
2023/05/15 03:14:06;;;;;;;11.90;10.60;;;;;;;10.78;87.43;100462.27;106736;1257;61812;-67
2023/05/15 03:16:35;;;;;;;14.30;11.40;;;;;;;10.83;87.50;100459.27;106707;1257;61353;-71
2023/05/15 03:19:02;;;;;;;12.70;11.00;;;;;;;10.86;87.41;100457.52;106745;1257;74728;-69
2023/05/15 03:21:29;;;;;;;12.60;11.30;;;;;;;10.89;87.52;100455.94;106778;1257;70005;-70
2023/05/15 03:23:56;;;;;;;13.30;11.90;;;;;;;10.90;87.47;100451.70;106925;1256;72675;-68
2023/05/15 03:26:23;;;;;;;14.50;11.50;;;;;;;10.91;87.37;100452.26;107069;1256;61215;-69
2023/05/15 03:28:50;;;;;;;13.20;11.30;;;;;;;10.92;87.57;100451.13;106649;1256;61224;-69
2023/05/15 03:31:16;;;;;;;15.80;11.70;;;;;;;10.91;87.68;100449.59;106516;1257;73794;-69
2023/05/15 03:33:44;;;;;;;12.50;11.20;;;;;;;10.91;87.84;100449.97;106716;1257;61346;-68
2023/05/15 03:36:11;;;;;;;13.30;11.70;;;;;;;10.90;87.98;100447.13;106790;1256;72591;-68
2023/05/15 03:38:38;;;;;;;15.00;12.30;;;;;;;10.88;88.16;100446.59;106709;1257;61832;-68
2023/05/15 03:41:04;;;;;;;13.90;12.20;;;;;;;10.87;88.23;100441.55;106768;1261;61125;-67
2023/05/15 03:43:31;;;;;;;16.40;12.10;;;;;;;10.87;88.37;100438.75;106794;1256;72418;-72
2023/05/15 03:45:58;;;;;;;14.10;12.20;;;;;;;10.87;88.53;100435.73;106473;1257;71377;-67
2023/05/15 03:48:24;;;;;;;14.30;12.30;;;;;;;10.89;88.57;100434.70;106881;1256;72801;-68
2023/05/15 03:50:51;;;;;;;16.40;12.20;;;;;;;10.90;88.52;100437.50;106688;1257;61225;-68
2023/05/15 03:53:18;;;;;;;15.80;11.70;;;;;;;10.92;88.41;100441.36;106662;1260;61686;-69
2023/05/15 03:55:44;;;;;;;13.90;11.80;;;;;;;10.95;88.23;100438.34;106525;1257;74421;-69
2023/05/15 03:58:11;;;;;;;14.20;11.20;;;;;;;11.02;88.03;100442.52;106734;1256;69653;-67
2023/05/15 04:00:38;;;;;;;14.80;11.60;;;;;;;11.10;88.05;100443.15;107021;1256;61327;-69
2023/05/15 04:03:05;;;;;;;16.80;11.50;;;;;;;11.18;87.80;100441.05;107277;1257;61276;-69
2023/05/15 04:05:31;;;;;;;15.20;11.60;;;;;;;11.27;87.54;100440.34;106592;1257;61260;-73
2023/05/15 04:07:58;;;;;;;15.40;11.40;;;;;;;11.36;87.39;100434.94;106587;1257;73473;-70
2023/05/15 04:10:25;;;;;;;14.50;11.70;;;;;;;11.44;86.89;100435.67;106893;1256;61350;-68
2023/05/15 04:12:52;;;;;;;15.20;11.10;;;;;;;11.52;86.75;100436.34;106470;1256;71168;-68
2023/05/15 04:15:21;;;;;;;15.00;11.50;;;;;;;11.59;86.52;100435.73;106483;1262;61750;-72
2023/05/15 04:17:50;;;;;;;16.00;11.30;;;;;;;11.68;86.16;100435.41;106938;1256;61234;-71
2023/05/15 04:20:19;;;;;;;16.20;11.50;;;;;;;11.73;85.77;100440.21;106730;1257;73766;-68
2023/05/15 04:22:46;;;;;;;15.80;11.40;;;;;;;11.78;85.52;100442.30;107119;1259;71251;-69
2023/05/15 04:25:13;;;;;;;15.70;10.70;;;;;;;11.81;85.39;100444.73;106552;1256;71113;-69
2023/05/15 04:27:41;;;;;;;14.70;10.70;;;;;;;11.84;85.21;100443.13;106428;1257;61234;-69
2023/05/15 04:30:08;;;;;;;13.50;11.00;;;;;;;11.88;85.30;100442.36;107109;1257;61562;-68
2023/05/15 04:32:36;;;;;;;14.60;10.90;;;;;;;11.96;85.09;100436.95;106470;1257;74054;-68
2023/05/15 04:35:11;;;;;;;20.30;11.20;;;;;;;12.04;84.88;100431.13;107234;1256;68745;-68
2023/05/15 04:37:42;;;;;;;21.00;11.50;;;;;;;12.17;84.92;100434.06;106733;1257;71503;-68
2023/05/15 04:40:09;;;;;;;23.10;11.20;;;;;;;12.30;84.52;100432.08;106690;1256;61956;-67
2023/05/15 04:42:36;;;;;;;21.30;11.20;;;;;;;12.40;84.03;100433.10;106869;1257;61129;-70
2023/05/15 04:45:06;;;;;;;27.00;11.80;;;;;;;12.49;83.37;100434.42;106730;1257;73870;-71
2023/05/15 04:47:32;;;;;;;27.20;11.80;;;;;;;12.59;82.97;100435.07;106809;1257;69556;-71
2023/05/15 04:49:59;;;;;;;33.30;11.30;;;;;;;12.71;82.69;100434.33;106788;1261;71257;-70
2023/05/15 04:52:26;;;;;;;23.90;11.00;;;;;;;12.85;82.56;100433.77;106998;1256;61239;-71
2023/05/15 04:54:54;;;;;;;24.60;10.20;;;;;;;12.99;82.32;100437.12;107030;1256;60383;-71
2023/05/15 04:57:21;;;;;;;18.30;10.70;;;;;;;13.12;81.94;100440.98;106790;1257;74191;-72
2023/05/15 04:59:48;;;;;;;25.60;11.40;;;;;;;13.25;81.57;100443.14;107042;1257;72207;-71
2023/05/15 05:02:15;;;;;;;15.90;9.80;;;;;;;13.41;81.92;100442.36;106954;1257;72752;-70
2023/05/15 05:04:44;;;;;;;10.70;9.00;;;;;;;13.59;81.35;100441.64;106907;1261;61263;-71
2023/05/15 05:07:10;;;;;;;13.50;10.20;;;;;;;13.75;80.62;100445.41;106854;1258;61443;-75
2023/05/15 05:09:38;;;;;;;10.10;9.10;;;;;;;13.91;79.92;100444.54;106811;1257;74715;-71
2023/05/15 05:12:08;;;;;;;9.80;8.70;;;;;;;14.04;79.05;100445.51;107310;1259;70443;-71
2023/05/15 05:14:36;;;;;;;9.50;8.50;;;;;;;14.16;78.24;100447.55;107004;1257;72782;-71
2023/05/15 05:17:02;;;;;;;10.60;9.20;;;;;;;14.28;77.66;100444.20;106702;1257;61646;-71
2023/05/15 05:19:29;;;;;;;9.80;8.80;;;;;;;14.40;77.07;100439.63;106721;1258;63435;-70
2023/05/15 05:22:00;;;;;;;11.60;9.10;;;;;;;14.52;76.62;100441.15;106934;1257;73084;-70
2023/05/15 05:24:27;;;;;;;9.40;8.50;;;;;;;14.64;76.08;100438.98;106939;1260;69645;-71
2023/05/15 05:26:54;;;;;;;12.00;8.30;;;;;;;14.77;75.73;100439.23;106834;1257;71470;-71
2023/05/15 05:29:20;;;;;;;9.60;8.60;;;;;;;14.90;74.62;100433.79;106457;1257;61334;-74
2023/05/15 05:31:47;;;;;;;10.60;8.50;;;;;;;15.03;74.42;100434.49;107465;1257;61299;-72
2023/05/15 05:34:13;;;;;;;10.80;8.40;;;;;;;15.18;73.74;100431.89;106851;1257;61212;-71
2023/05/15 05:36:40;;;;;;;11.50;8.50;;;;;;;15.32;72.46;100436.89;106666;1260;70944;-71
2023/05/15 05:39:07;;;;;;;9.70;8.10;;;;;;;15.43;71.40;100437.67;106810;1257;71745;-73
2023/05/15 05:41:34;;;;;;;9.70;8.60;;;;;;;15.47;70.11;100439.24;106674;1261;61755;-72
2023/05/15 05:44:00;;;;;;;12.10;8.00;;;;;;;15.41;69.18;100438.66;106987;1256;59359;-70
2023/05/15 05:46:28;;;;;;;12.00;8.40;;;;;;;15.36;69.17;100441.88;106781;1257;73195;-72
2023/05/15 05:48:54;;;;;;;12.40;8.70;;;;;;;15.35;69.41;100439.75;108277;1257;71564;-71
2023/05/15 05:51:21;;;;;;;13.50;8.40;;;;;;;15.38;69.02;100440.41;107218;1257;61279;-74
2023/05/15 05:53:48;;;;;;;12.60;8.40;;;;;;;15.43;68.48;100441.53;107492;1257;62199;-71
2023/05/15 05:56:15;;;;;;;13.90;7.90;;;;;;;15.52;67.19;100440.16;107634;1257;59792;-70
2023/05/15 05:58:42;;;;;;;9.50;7.30;;;;;;;15.60;66.46;100437.66;107126;1261;73415;-73
2023/05/15 06:01:09;;;;;;;9.50;6.90;;;;;;;15.75;66.61;100438.29;107901;1256;70151;-72
2023/05/15 06:03:37;;;;;;;9.90;6.30;;;;;;;15.95;65.68;100434.50;107694;1257;70305;-71
2023/05/15 06:06:04;;;;;;;11.30;6.50;;;;;;;16.13;64.12;100436.64;107975;1257;61321;-71
2023/05/15 06:08:31;;;;;;;9.60;6.10;;;;;;;16.35;64.38;100432.34;108332;1257;61084;-74
2023/05/15 06:10:58;;;;;;;10.30;5.90;;;;;;;16.52;61.63;100429.14;107524;1258;76182;-70
2023/05/15 06:13:24;;;;;;;11.10;5.60;;;;;;;16.65;61.03;100424.15;107578;1256;72278;-72
2023/05/15 06:15:51;;;;;;;8.40;5.60;;;;;;;16.81;60.57;100421.20;108122;1258;71362;-72
2023/05/15 06:18:17;;;;;;;10.10;5.70;;;;;;;16.94;60.14;100417.92;107215;1262;60744;-69
2023/05/15 06:20:45;;;;;;;7.30;5.70;;;;;;;17.09;59.94;100419.06;107340;1257;61224;-71
2023/05/15 06:23:12;;;;;;;7.90;5.60;;;;;;;17.17;57.60;100420.56;108933;1256;73488;-71
2023/05/15 06:25:39;;;;;;;8.10;5.20;;;;;;;17.22;57.58;100418.26;108870;1256;70518;-71
2023/05/15 06:28:05;;;;;;;7.20;5.00;;;;;;;17.31;57.83;100419.63;108893;1257;72562;-71
2023/05/15 06:30:32;;;;;;;11.90;5.90;;;;;;;17.40;57.57;100422.31;108793;1257;59340;-72
2023/05/15 06:32:58;;;;;;;9.20;5.70;;;;;;;17.46;57.32;100424.70;108938;1257;60373;-71
2023/05/15 06:35:25;;;;;;;15.50;7.20;;;;;;;17.46;57.28;100428.78;108955;1256;73157;-71
2023/05/15 06:37:52;;;;;;;13.30;6.10;;;;;;;17.41;57.83;100425.56;108947;1256;71380;-72
2023/05/15 06:40:19;;;;;;;11.20;5.90;;;;;;;17.44;57.36;100420.36;107448;1257;71453;-71
2023/05/15 06:42:46;;;;;;;10.20;5.90;;;;;;;17.46;56.27;100420.13;106787;1256;61158;-71
2023/05/15 06:45:13;;;;;;;9.30;5.60;;;;;;;17.50;55.91;100415.29;107768;1261;60861;-71
2023/05/15 06:47:39;;;;;;;11.80;6.10;;;;;;;17.62;56.29;100411.95;107665;1257;74407;-72
2023/05/15 06:50:06;;;;;;;11.30;6.80;;;;;;;17.78;56.58;100414.73;107272;1256;69181;-70
2023/05/15 06:52:33;;;;;;;12.70;6.10;;;;;;;17.87;56.02;100413.77;107187;1257;71239;-71
2023/05/15 06:55:00;;;;;;;16.60;7.20;;;;;;;17.85;55.43;100414.10;107216;1256;59198;-71
2023/05/15 06:57:26;;;;;;;15.20;6.80;;;;;;;17.93;56.08;100415.42;107543;1257;61362;-70
2023/05/15 06:59:53;;;;;;;25.50;7.10;;;;;;;17.93;55.22;100416.77;107018;1259;74487;-72
2023/05/15 07:02:19;;;;;;;16.40;6.90;;;;;;;18.03;56.18;100413.88;108180;1257;59169;-70
2023/05/15 07:04:46;;;;;;;17.40;7.00;;;;;;;18.08;56.47;100413.55;107281;1256;71807;-70
2023/05/15 07:07:13;;;;;;;14.40;7.00;;;;;;;18.23;56.71;100409.27;107705;1256;59950;-70
2023/05/15 07:09:40;;;;;;;16.80;6.50;;;;;;;18.27;54.91;100410.71;107167;1258;61747;-75
2023/05/15 07:12:06;;;;;;;12.40;5.90;;;;;;;18.32;54.79;100406.33;107289;1257;76044;-72
2023/05/15 07:14:33;;;;;;;11.60;5.00;;;;;;;18.36;53.90;100408.45;107572;1257;70287;-70
2023/05/15 07:16:59;;;;;;;14.70;5.70;;;;;;;18.38;52.56;100409.02;107253;1257;71925;-71
2023/05/15 07:19:26;;;;;;;15.20;5.30;;;;;;;18.47;53.75;100406.43;107611;1256;61192;-70
2023/05/15 07:21:53;;;;;;;15.30;5.50;;;;;;;18.62;53.54;100407.30;107636;1257;59276;-71
2023/05/15 07:24:19;;;;;;;9.50;4.30;;;;;;;18.81;53.04;100411.08;107290;1256;74742;-71
2023/05/15 07:26:46;;;;;;;10.90;4.60;;;;;;;19.03;51.67;100405.24;107326;1256;71299;-70
2023/05/15 07:29:24;;;;;;;11.60;4.40;;;;;;;19.30;50.48;100403.77;107397;1261;71302;-71
2023/05/15 07:31:51;;;;;;;6.70;3.90;;;;;;;19.45;49.36;100400.40;107310;1256;61232;-71
2023/05/15 07:34:18;;;;;;;8.30;4.00;;;;;;;19.52;47.82;100402.74;107106;1256;61356;-71
2023/05/15 07:36:45;;;;;;;8.80;4.10;;;;;;;19.50;47.04;100398.02;107549;1256;73519;-71
2023/05/15 07:39:12;;;;;;;10.80;4.00;;;;;;;19.51;46.95;100396.32;107547;1257;72032;-72
2023/05/15 07:41:38;;;;;;;10.10;4.00;;;;;;;19.49;46.74;100397.09;107448;1257;73386;-72
2023/05/15 07:44:05;;;;;;;8.20;4.10;;;;;;;19.52;47.71;100389.99;107188;1257;61125;-71
2023/05/15 07:46:33;;;;;;;15.60;4.80;;;;;;;19.67;48.86;100385.57;107540;1257;61221;-71
2023/05/15 07:49:00;;;;;;;18.20;5.40;;;;;;;19.67;48.22;100387.06;107289;1257;73458;-72
2023/05/15 07:51:27;;;;;;;12.10;4.30;;;;;;;19.66;47.91;100385.92;107057;1257;61353;-71
2023/05/15 07:53:53;;;;;;;12.50;4.60;;;;;;;19.60;47.02;100388.95;107422;1257;71462;-73
2023/05/15 07:56:23;;;;;;;11.80;4.60;;;;;;;19.54;47.57;100389.49;108049;1257;59678;-71
2023/05/15 07:58:49;;;;;;;11.20;4.80;;;;;;;19.48;47.56;100391.20;107192;1256;61285;-71
2023/05/15 08:01:16;;;;;;;13.40;4.80;;;;;;;19.42;47.45;100392.70;107680;1256;73661;-72
2023/05/15 08:03:42;;;;;;;10.40;4.60;;;;;;;19.49;47.56;100388.37;107116;1257;71002;-72
2023/05/15 08:06:09;;;;;;;11.20;4.30;;;;;;;19.57;47.23;100384.74;107580;1260;72692;-71
2023/05/15 08:08:36;;;;;;;10.60;3.90;;;;;;;19.76;46.95;100380.20;107337;1257;61119;-70
2023/05/15 08:11:03;;;;;;;10.70;3.90;;;;;;;19.96;46.23;100376.66;107407;1260;62142;-71
2023/05/15 08:13:29;;;;;;;9.00;4.20;;;;;;;20.19;46.30;100377.55;107673;1257;73104;-71
2023/05/15 08:15:56;;;;;;;8.90;3.60;;;;;;;20.41;44.98;100374.69;107291;1260;69742;-73
2023/05/15 08:18:23;;;;;;;14.70;4.10;;;;;;;20.58;45.09;100375.15;107458;1257;71158;-71
2023/05/15 08:20:49;;;;;;;7.90;4.00;;;;;;;20.73;45.04;100374.66;107355;1257;61721;-73
2023/05/15 08:23:15;;;;;;;10.30;3.90;;;;;;;20.87;44.71;100370.46;107391;1257;59304;-72
2023/05/15 08:25:42;;;;;;;9.70;4.30;;;;;;;20.89;44.24;100370.17;106824;1256;296638;-73
2023/05/15 08:28:09;;;;;;;8.70;4.20;;;;;;;20.79;43.71;100368.54;107241;1257;70819;-72
2023/05/15 08:30:36;;;;;;;10.10;3.90;;;;;;;20.76;44.51;100367.37;107848;1257;72703;-72
2023/05/15 08:33:03;;;;;;;8.30;4.20;;;;;;;20.66;44.45;100368.11;107040;1259;59403;-71
2023/05/15 08:35:30;;;;;;;7.70;4.10;;;;;;;20.48;43.71;100368.05;107673;1257;62260;-71
2023/05/15 08:37:57;;;;;;;8.80;4.30;;;;;;;20.32;44.26;100363.45;107654;1257;74713;-71
2023/05/15 08:40:25;;;;;;;6.20;4.00;;;;;;;20.25;44.82;100362.67;107328;1262;69745;-72
2023/05/15 08:43:02;;;;;;;7.80;4.40;;;;;;;20.22;44.98;100366.33;106981;1257;71856;-71
2023/05/15 08:45:29;;;;;;;7.60;4.20;;;;;;;20.35;45.47;100360.27;107895;1260;61596;-72
2023/05/15 08:47:59;;;;;;;7.80;3.90;;;;;;;20.51;44.61;100357.22;107735;1256;60842;-71
2023/05/15 08:50:27;;;;;;;7.00;3.90;;;;;;;20.68;44.44;100353.95;107497;1257;74479;-71
2023/05/15 08:52:57;;;;;;;10.80;4.40;;;;;;;20.84;44.81;100348.70;107414;1257;69772;-71
2023/05/15 08:55:24;;;;;;;10.10;4.40;;;;;;;20.92;44.53;100347.72;107660;1257;70355;-72
2023/05/15 08:57:53;;;;;;;8.40;4.00;;;;;;;20.95;44.85;100343.81;107358;1256;61269;-71
2023/05/15 09:00:21;;;;;;;8.50;4.30;;;;;;;20.99;43.49;100345.31;107502;1259;61741;-71
2023/05/15 09:02:47;;;;;;;7.30;4.00;;;;;;;20.95;44.22;100344.52;107893;1263;73554;-71
2023/05/15 09:05:14;;;;;;;7.30;4.20;;;;;;;20.99;43.75;100342.61;107912;1260;71641;-71
2023/05/15 09:07:43;;;;;;;8.70;4.00;;;;;;;20.98;43.44;100337.48;107409;1257;72686;-73
2023/05/15 09:10:12;;;;;;;9.40;4.40;;;;;;;20.97;44.62;100343.25;107229;1262;61231;-71
2023/05/15 09:12:45;;;;;;;8.20;3.70;;;;;;;20.74;44.66;100345.24;107852;1256;61267;-73
2023/05/15 09:15:16;;;;;;;5.70;3.40;;;;;;;20.66;44.70;100343.23;107497;1257;74408;-71
2023/05/15 09:17:44;;;;;;;8.80;3.90;;;;;;;20.81;44.88;100338.27;107090;1261;69633;-72
2023/05/15 09:20:34;;;;;;;6.20;3.40;;;;;;;20.88;43.86;100343.31;107478;1258;72709;-71
2023/05/15 09:23:02;;;;;;;6.50;4.10;;;;;;;20.96;44.09;100341.55;107362;1257;61228;-72
2023/05/15 09:25:33;;;;;;;3.70;3.20;;;;;;;21.07;44.17;100343.73;107039;1263;61638;-71
2023/05/15 09:28:00;;;;;;;4.90;3.30;;;;;;;21.17;43.30;100336.11;106560;1262;73289;-72
2023/05/15 09:30:27;;;;;;;6.80;3.60;;;;;;;21.32;44.39;100337.73;106775;1263;69736;-70
2023/05/15 09:33:00;;;;;;;6.00;3.50;;;;;;;21.35;43.45;100342.84;107297;1257;72726;-72
2023/05/15 09:35:37;;;;;;;6.70;3.50;;;;;;;21.53;43.61;100335.14;106419;1262;62533;-72
2023/05/15 09:38:09;;;;;;;6.30;3.60;;;;;;;21.69;42.87;100340.20;106458;1263;61266;-73
2023/05/15 09:40:37;;;;;;;5.80;3.50;;;;;;;21.74;42.43;100337.92;106551;1262;73797;-71
2023/05/15 09:43:04;;;;;;;8.00;3.90;;;;;;;21.78;42.73;100338.59;106579;1257;70815;-72
2023/05/15 09:45:31;;;;;;;5.20;3.40;;;;;;;21.89;43.17;100329.45;106475;1261;72070;-71
2023/05/15 09:48:03;;;;;;;8.20;2.90;;;;;;;21.99;41.49;100327.46;106264;1260;61266;-72
2023/05/15 09:50:38;;;;;;;7.00;3.50;;;;;;;22.09;42.16;100324.14;107131;1257;60606;-73
2023/05/15 09:53:05;;;;;;;4.70;3.10;;;;;;;22.03;40.52;100336.12;106233;1263;74728;-72
2023/05/15 09:55:35;;;;;;;5.10;3.10;;;;;;;21.94;39.75;100333.31;106792;1257;71306;-72
2023/05/15 09:58:10;;;;;;;6.10;2.80;;;;;;;21.88;39.39;100329.75;106689;1258;71186;-72
2023/05/15 10:00:39;;;;;;;8.50;3.30;;;;;;;21.95;40.39;100325.13;106548;1257;61671;-73
2023/05/15 10:03:17;;;;;;;5.30;2.70;;;;;;;22.06;39.78;100327.83;106528;1262;62410;-73
2023/05/15 10:05:44;;;;;;;5.60;2.90;;;;;;;22.00;39.02;100323.79;106724;1258;74661;-72
2023/05/15 10:08:11;;;;;;;6.70;3.00;;;;;;;22.00;39.32;100322.45;108660;1257;71436;-71
2023/05/15 10:10:38;;;;;;;5.40;3.20;;;;;;;22.04;39.34;100316.80;107459;1257;71280;-73
2023/05/15 10:13:06;;;;;;;5.80;3.00;;;;;;;22.09;38.84;100318.72;106219;1263;61161;-75
2023/05/15 10:15:34;;;;;;;5.80;2.90;;;;;;;22.14;38.67;100319.23;106995;1256;61160;-71
2023/05/15 10:18:03;;;;;;;5.80;3.00;;;;;;;22.33;38.87;100320.02;106469;1256;74638;-76
2023/05/15 10:20:34;;;;;;;5.00;2.60;;;;;;;22.46;36.87;100315.98;106004;1260;69847;-73
2023/05/15 10:23:03;;;;;;;5.60;2.80;;;;;;;22.59;36.71;100315.77;106971;1260;70972;-73
2023/05/15 10:26:02;;;;;;;4.60;2.90;;;;;;;22.72;36.92;100316.02;106280;1257;61183;-71
2023/05/15 10:28:30;;;;;;;6.20;3.40;;;;;;;22.65;36.34;100312.75;107428;1259;61260;-72
2023/05/15 10:31:00;;;;;;;7.50;3.10;;;;;;;22.67;37.28;100314.77;106418;1262;75089;-72
2023/05/15 10:33:28;;;;;;;8.60;3.20;;;;;;;22.69;37.02;100307.92;106487;1263;69373;-72
2023/05/15 10:35:55;;;;;;;6.10;2.90;;;;;;;22.75;36.85;100305.70;106481;1261;72805;-73
2023/05/15 10:38:23;;;;;;;4.10;2.70;;;;;;;22.86;35.92;100298.38;106236;1257;61187;-72
2023/05/15 10:40:51;;;;;;;7.10;2.70;;;;;;;22.98;33.84;100298.84;106519;1257;61273;-72
2023/05/15 10:43:29;;;;;;;5.70;2.60;;;;;;;23.04;33.89;100300.78;106136;1258;74728;-72
2023/05/15 10:45:56;;;;;;;5.50;2.60;;;;;;;23.16;34.01;100294.95;107188;1261;71244;-71
2023/05/15 10:48:25;;;;;;;6.90;2.70;;;;;;;23.23;33.02;100296.54;107448;1257;71984;-71
2023/05/15 10:50:51;;;;;;;6.80;2.90;;;;;;;23.40;33.90;100288.48;106792;1257;61833;-72
2023/05/15 10:53:19;;;;;;;6.20;2.80;;;;;;;23.54;33.66;100284.21;106677;1260;61243;-73
2023/05/15 10:55:48;;;;;;;5.70;2.90;;;;;;;23.62;32.97;100282.52;106647;1257;74525;-73
2023/05/15 10:58:15;;;;;;;8.10;2.70;;;;;;;23.72;33.49;100289.80;107049;1256;70031;-73
2023/05/15 11:00:44;;;;;;;5.10;3.20;;;;;;;23.61;31.96;100289.20;106222;1257;61375;-74
2023/05/15 11:03:14;;;;;;;6.00;2.90;;;;;;;23.71;32.42;100283.65;106497;1257;61343;-73
2023/05/15 11:06:10;;;;;;;6.30;2.90;;;;;;;23.82;32.37;100275.98;106730;1258;61216;-75
2023/05/15 11:08:38;;;;;;;5.30;2.90;;;;;;;23.99;33.34;100274.81;107080;1260;73591;-72
2023/05/15 11:11:05;;;;;;;6.80;2.80;;;;;;;23.93;33.37;100275.85;106420;1262;69974;-74
2023/05/15 11:14:20;;;;;;;4.80;2.70;;;;;;;23.91;33.00;100269.95;107865;1257;73113;-72
2023/05/15 11:16:52;;;;;;;6.30;2.70;;;;;;;23.86;32.99;100266.17;106713;1266;61180;-73